sensor_id;sensor_type;location;lat;lon;timestamp;P1;durP1;ratioP1;P2;durP2;ratioP2
65033;SDS011;51601;51.356;12.458;2023-03-21T00:00:09;650.17;;;507.85;;
65033;SDS011;51601;51.356;12.458;2023-03-21T00:04:33;637.63;;;490.83;;
65033;SDS011;51601;51.356;12.458;2023-03-21T00:09:12;643.77;;;513.43;;
65033;SDS011;51601;51.356;12.458;2023-03-21T00:13:38;648.88;;;522.20;;
65033;SDS011;51601;51.356;12.458;2023-03-21T00:18:03;649.65;;;524.20;;
65033;SDS011;51601;51.356;12.458;2023-03-21T00:22:33;646.35;;;529.08;;
65033;SDS011;51601;51.356;12.458;2023-03-21T00:26:58;651.40;;;537.90;;
65033;SDS011;51601;51.356;12.458;2023-03-21T00:31:43;656.97;;;538.78;;
65033;SDS011;51601;51.356;12.458;2023-03-21T00:36:08;655.65;;;537.58;;
65033;SDS011;51601;51.356;12.458;2023-03-21T00:40:34;660.27;;;544.63;;
65033;SDS011;51601;51.356;12.458;2023-03-21T00:45:09;657.13;;;542.60;;
65033;SDS011;51601;51.356;12.458;2023-03-21T00:49:35;658.90;;;534.33;;
65033;SDS011;51601;51.356;12.458;2023-03-21T00:53:59;664.73;;;552.83;;
65033;SDS011;51601;51.356;12.458;2023-03-21T00:58:26;657.58;;;531.70;;
65033;SDS011;51601;51.356;12.458;2023-03-21T01:02:50;660.90;;;538.88;;
65033;SDS011;51601;51.356;12.458;2023-03-21T01:07:31;550.17;;;398.63;;
65033;SDS011;51601;51.356;12.458;2023-03-21T01:11:55;580.40;;;427.40;;
65033;SDS011;51601;51.356;12.458;2023-03-21T01:21:40;618.72;;;482.40;;
65033;SDS011;51601;51.356;12.458;2023-03-21T01:26:06;631.37;;;503.93;;
65033;SDS011;51601;51.356;12.458;2023-03-21T01:30:32;598.13;;;455.35;;
65033;SDS011;51601;51.356;12.458;2023-03-21T01:35:03;597.00;;;458.02;;
65033;SDS011;51601;51.356;12.458;2023-03-21T01:39:28;587.83;;;451.47;;
65033;SDS011;51601;51.356;12.458;2023-03-21T01:43:55;589.30;;;447.23;;
65033;SDS011;51601;51.356;12.458;2023-03-21T01:48:28;574.55;;;427.67;;
65033;SDS011;51601;51.356;12.458;2023-03-21T01:52:53;577.75;;;432.98;;
65033;SDS011;51601;51.356;12.458;2023-03-21T01:57:22;570.97;;;427.80;;
65033;SDS011;51601;51.356;12.458;2023-03-21T02:02:07;571.65;;;427.33;;
65033;SDS011;51601;51.356;12.458;2023-03-21T02:06:49;566.47;;;422.75;;
65033;SDS011;51601;51.356;12.458;2023-03-21T02:11:26;568.87;;;424.53;;
65033;SDS011;51601;51.356;12.458;2023-03-21T02:15:51;577.85;;;438.65;;
65033;SDS011;51601;51.356;12.458;2023-03-21T02:20:38;582.40;;;442.25;;
65033;SDS011;51601;51.356;12.458;2023-03-21T02:35:48;582.17;;;442.45;;
65033;SDS011;51601;51.356;12.458;2023-03-21T02:40:36;579.58;;;444.20;;
65033;SDS011;51601;51.356;12.458;2023-03-21T02:45:05;542.83;;;397.23;;
65033;SDS011;51601;51.356;12.458;2023-03-21T02:49:35;532.55;;;378.08;;
65033;SDS011;51601;51.356;12.458;2023-03-21T02:54:03;552.03;;;390.90;;
65033;SDS011;51601;51.356;12.458;2023-03-21T02:58:46;490.20;;;338.50;;
65033;SDS011;51601;51.356;12.458;2023-03-21T03:03:06;472.67;;;320.25;;
65033;SDS011;51601;51.356;12.458;2023-03-21T03:07:33;479.98;;;318.15;;
65033;SDS011;51601;51.356;12.458;2023-03-21T03:11:59;499.50;;;335.23;;
65033;SDS011;51601;51.356;12.458;2023-03-21T03:16:26;516.88;;;352.20;;
65033;SDS011;51601;51.356;12.458;2023-03-21T03:20:56;501.85;;;348.02;;
65033;SDS011;51601;51.356;12.458;2023-03-21T03:25:23;479.45;;;323.60;;
65033;SDS011;51601;51.356;12.458;2023-03-21T03:30:06;462.33;;;307.70;;
65033;SDS011;51601;51.356;12.458;2023-03-21T03:34:35;505.20;;;342.20;;
65033;SDS011;51601;51.356;12.458;2023-03-21T03:39:04;494.15;;;336.83;;
65033;SDS011;51601;51.356;12.458;2023-03-21T03:43:34;450.70;;;295.70;;
65033;SDS011;51601;51.356;12.458;2023-03-21T03:48:04;466.48;;;298.50;;
65033;SDS011;51601;51.356;12.458;2023-03-21T03:52:38;451.73;;;287.30;;
65033;SDS011;51601;51.356;12.458;2023-03-21T03:57:20;464.37;;;298.13;;
65033;SDS011;51601;51.356;12.458;2023-03-21T04:01:44;466.08;;;294.75;;
65033;SDS011;51601;51.356;12.458;2023-03-21T04:06:08;468.15;;;292.02;;
65033;SDS011;51601;51.356;12.458;2023-03-21T04:10:33;472.30;;;293.55;;
65033;SDS011;51601;51.356;12.458;2023-03-21T04:14:58;472.63;;;293.47;;
65033;SDS011;51601;51.356;12.458;2023-03-21T04:19:33;425.08;;;259.25;;
65033;SDS011;51601;51.356;12.458;2023-03-21T04:23:57;388.08;;;237.43;;
65033;SDS011;51601;51.356;12.458;2023-03-21T04:28:23;382.50;;;228.20;;
65033;SDS011;51601;51.356;12.458;2023-03-21T04:32:58;351.77;;;206.50;;
65033;SDS011;51601;51.356;12.458;2023-03-21T04:37:26;361.73;;;209.60;;
65033;SDS011;51601;51.356;12.458;2023-03-21T04:41:50;335.00;;;192.93;;
65033;SDS011;51601;51.356;12.458;2023-03-21T04:46:17;368.58;;;210.45;;
65033;SDS011;51601;51.356;12.458;2023-03-21T04:50:45;322.95;;;185.30;;
65033;SDS011;51601;51.356;12.458;2023-03-21T04:55:09;304.23;;;171.35;;
65033;SDS011;51601;51.356;12.458;2023-03-21T04:59:33;354.97;;;204.33;;
65033;SDS011;51601;51.356;12.458;2023-03-21T05:03:59;323.77;;;184.05;;
65033;SDS011;51601;51.356;12.458;2023-03-21T05:08:26;323.67;;;182.95;;
65033;SDS011;51601;51.356;12.458;2023-03-21T05:12:50;308.13;;;172.13;;
65033;SDS011;51601;51.356;12.458;2023-03-21T05:17:14;335.30;;;186.68;;
65033;SDS011;51601;51.356;12.458;2023-03-21T05:21:47;419.30;;;255.93;;
65033;SDS011;51601;51.356;12.458;2023-03-21T05:26:15;528.20;;;364.53;;
65033;SDS011;51601;51.356;12.458;2023-03-21T05:30:48;583.75;;;447.40;;
65033;SDS011;51601;51.356;12.458;2023-03-21T05:35:13;593.17;;;449.70;;
65033;SDS011;51601;51.356;12.458;2023-03-21T05:39:39;581.90;;;434.02;;
65033;SDS011;51601;51.356;12.458;2023-03-21T05:44:10;582.33;;;442.43;;
65033;SDS011;51601;51.356;12.458;2023-03-21T05:48:34;580.10;;;432.83;;
65033;SDS011;51601;51.356;12.458;2023-03-21T05:53:07;574.22;;;418.60;;
65033;SDS011;51601;51.356;12.458;2023-03-21T05:57:32;558.47;;;400.30;;
65033;SDS011;51601;51.356;12.458;2023-03-21T06:02:02;382.27;;;249.27;;
65033;SDS011;51601;51.356;12.458;2023-03-21T06:06:27;422.70;;;272.80;;
65033;SDS011;51601;51.356;12.458;2023-03-21T06:10:54;408.60;;;246.30;;
65033;SDS011;51601;51.356;12.458;2023-03-21T06:15:19;366.42;;;215.35;;
65033;SDS011;51601;51.356;12.458;2023-03-21T06:20:06;358.23;;;208.75;;
65033;SDS011;51601;51.356;12.458;2023-03-21T06:24:37;356.88;;;208.30;;
65033;SDS011;51601;51.356;12.458;2023-03-21T06:29:01;322.80;;;192.50;;
65033;SDS011;51601;51.356;12.458;2023-03-21T06:33:28;381.65;;;216.77;;
65033;SDS011;51601;51.356;12.458;2023-03-21T06:37:52;319.75;;;177.48;;
65033;SDS011;51601;51.356;12.458;2023-03-21T06:42:21;290.23;;;157.47;;
65033;SDS011;51601;51.356;12.458;2023-03-21T06:46:50;371.38;;;205.18;;
65033;SDS011;51601;51.356;12.458;2023-03-21T06:51:16;281.08;;;149.43;;
65033;SDS011;51601;51.356;12.458;2023-03-21T06:56:01;452.60;;;270.03;;
65033;SDS011;51601;51.356;12.458;2023-03-21T07:00:27;316.73;;;177.43;;
65033;SDS011;51601;51.356;12.458;2023-03-21T07:04:52;264.02;;;150.35;;
65033;SDS011;51601;51.356;12.458;2023-03-21T07:09:21;340.40;;;188.98;;
65033;SDS011;51601;51.356;12.458;2023-03-21T07:13:51;447.20;;;263.97;;
65033;SDS011;51601;51.356;12.458;2023-03-21T07:18:17;535.53;;;323.45;;
65033;SDS011;51601;51.356;12.458;2023-03-21T07:22:41;584.83;;;367.98;;
65033;SDS011;51601;51.356;12.458;2023-03-21T07:27:07;401.43;;;222.37;;
65033;SDS011;51601;51.356;12.458;2023-03-21T07:31:31;311.65;;;163.13;;
65033;SDS011;51601;51.356;12.458;2023-03-21T07:35:56;280.73;;;147.65;;
65033;SDS011;51601;51.356;12.458;2023-03-21T07:40:20;283.17;;;146.10;;
65033;SDS011;51601;51.356;12.458;2023-03-21T07:44:46;288.02;;;145.73;;
65033;SDS011;51601;51.356;12.458;2023-03-21T07:49:10;332.08;;;164.43;;
65033;SDS011;51601;51.356;12.458;2023-03-21T07:53:34;330.45;;;179.90;;
65033;SDS011;51601;51.356;12.458;2023-03-21T07:57:58;367.97;;;202.03;;
65033;SDS011;51601;51.356;12.458;2023-03-21T08:02:23;378.60;;;197.15;;
65033;SDS011;51601;51.356;12.458;2023-03-21T08:06:48;333.65;;;165.68;;
65033;SDS011;51601;51.356;12.458;2023-03-21T08:11:12;277.07;;;138.43;;
65033;SDS011;51601;51.356;12.458;2023-03-21T08:15:37;209.75;;;110.20;;
65033;SDS011;51601;51.356;12.458;2023-03-21T08:20:05;173.25;;;91.57;;
65033;SDS011;51601;51.356;12.458;2023-03-21T08:24:31;269.77;;;137.80;;
65033;SDS011;51601;51.356;12.458;2023-03-21T08:28:55;340.65;;;172.60;;
65033;SDS011;51601;51.356;12.458;2023-03-21T08:33:19;215.60;;;111.50;;
65033;SDS011;51601;51.356;12.458;2023-03-21T08:37:45;122.03;;;71.00;;
65033;SDS011;51601;51.356;12.458;2023-03-21T08:42:09;239.33;;;120.50;;
65033;SDS011;51601;51.356;12.458;2023-03-21T08:46:33;322.58;;;161.40;;
65033;SDS011;51601;51.356;12.458;2023-03-21T08:50:58;269.30;;;135.10;;
65033;SDS011;51601;51.356;12.458;2023-03-21T08:55:24;141.20;;;78.47;;
65033;SDS011;51601;51.356;12.458;2023-03-21T08:59:47;154.10;;;80.25;;
65033;SDS011;51601;51.356;12.458;2023-03-21T09:04:11;124.20;;;70.45;;
65033;SDS011;51601;51.356;12.458;2023-03-21T09:08:35;262.50;;;131.13;;
65033;SDS011;51601;51.356;12.458;2023-03-21T09:13:01;307.45;;;152.48;;
65033;SDS011;51601;51.356;12.458;2023-03-21T09:17:25;323.05;;;153.18;;
65033;SDS011;51601;51.356;12.458;2023-03-21T09:21:49;198.10;;;98.88;;
65033;SDS011;51601;51.356;12.458;2023-03-21T09:26:14;115.43;;;64.97;;
65033;SDS011;51601;51.356;12.458;2023-03-21T09:30:39;250.63;;;125.72;;
65033;SDS011;51601;51.356;12.458;2023-03-21T09:35:03;170.38;;;90.25;;
65033;SDS011;51601;51.356;12.458;2023-03-21T09:39:29;146.00;;;79.13;;
65033;SDS011;51601;51.356;12.458;2023-03-21T09:43:57;97.85;;;58.50;;
65033;SDS011;51601;51.356;12.458;2023-03-21T09:48:34;103.07;;;61.17;;
65033;SDS011;51601;51.356;12.458;2023-03-21T09:53:18;97.90;;;56.57;;
65033;SDS011;51601;51.356;12.458;2023-03-21T09:57:46;106.68;;;60.35;;
65033;SDS011;51601;51.356;12.458;2023-03-21T10:02:19;114.40;;;65.28;;
65033;SDS011;51601;51.356;12.458;2023-03-21T10:06:56;164.13;;;78.43;;
65033;SDS011;51601;51.356;12.458;2023-03-21T10:11:23;12.33;;;4.17;;
65033;SDS011;51601;51.356;12.458;2023-03-21T10:15:51;216.82;;;102.22;;
65033;SDS011;51601;51.356;12.458;2023-03-21T10:20:20;285.30;;;126.28;;
65033;SDS011;51601;51.356;12.458;2023-03-21T10:24:47;265.73;;;119.57;;
65033;SDS011;51601;51.356;12.458;2023-03-21T10:29:11;260.98;;;117.20;;
65033;SDS011;51601;51.356;12.458;2023-03-21T10:33:38;256.52;;;116.70;;
65033;SDS011;51601;51.356;12.458;2023-03-21T10:38:05;219.73;;;102.90;;
65033;SDS011;51601;51.356;12.458;2023-03-21T10:42:37;191.10;;;92.90;;
65033;SDS011;51601;51.356;12.458;2023-03-21T10:47:03;123.00;;;67.90;;
65033;SDS011;51601;51.356;12.458;2023-03-21T10:51:29;9.57;;;4.03;;
65033;SDS011;51601;51.356;12.458;2023-03-21T10:55:56;7.53;;;3.70;;
65033;SDS011;51601;51.356;12.458;2023-03-21T11:00:26;8.60;;;4.30;;
65033;SDS011;51601;51.356;12.458;2023-03-21T11:04:52;9.50;;;4.72;;
65033;SDS011;51601;51.356;12.458;2023-03-21T11:09:18;9.83;;;4.50;;
65033;SDS011;51601;51.356;12.458;2023-03-21T11:13:44;8.95;;;4.00;;
65033;SDS011;51601;51.356;12.458;2023-03-21T11:18:14;10.07;;;4.50;;
65033;SDS011;51601;51.356;12.458;2023-03-21T11:22:41;9.33;;;4.60;;
65033;SDS011;51601;51.356;12.458;2023-03-21T11:27:06;9.30;;;4.13;;
65033;SDS011;51601;51.356;12.458;2023-03-21T11:31:37;8.68;;;3.83;;
65033;SDS011;51601;51.356;12.458;2023-03-21T11:36:04;8.35;;;3.95;;
65033;SDS011;51601;51.356;12.458;2023-03-21T11:40:30;8.63;;;4.00;;
65033;SDS011;51601;51.356;12.458;2023-03-21T11:45:02;9.38;;;4.35;;
65033;SDS011;51601;51.356;12.458;2023-03-21T11:49:32;8.73;;;4.07;;
65033;SDS011;51601;51.356;12.458;2023-03-21T11:53:59;9.63;;;3.97;;
65033;SDS011;51601;51.356;12.458;2023-03-21T11:58:35;9.52;;;3.88;;
65033;SDS011;51601;51.356;12.458;2023-03-21T12:03:11;8.57;;;4.50;;
65033;SDS011;51601;51.356;12.458;2023-03-21T12:08:04;9.00;;;4.30;;
65033;SDS011;51601;51.356;12.458;2023-03-21T12:12:39;9.10;;;3.80;;
65033;SDS011;51601;51.356;12.458;2023-03-21T12:17:05;9.05;;;3.60;;
65033;SDS011;51601;51.356;12.458;2023-03-21T12:21:37;8.48;;;3.50;;
65033;SDS011;51601;51.356;12.458;2023-03-21T12:26:18;8.43;;;3.67;;
65033;SDS011;51601;51.356;12.458;2023-03-21T12:30:49;9.35;;;3.47;;
65033;SDS011;51601;51.356;12.458;2023-03-21T12:35:22;10.13;;;3.53;;
65033;SDS011;51601;51.356;12.458;2023-03-21T12:39:59;8.17;;;3.53;;
65033;SDS011;51601;51.356;12.458;2023-03-21T12:44:32;7.63;;;3.10;;
65033;SDS011;51601;51.356;12.458;2023-03-21T12:49:02;8.00;;;3.67;;
65033;SDS011;51601;51.356;12.458;2023-03-21T12:53:34;8.70;;;3.27;;
65033;SDS011;51601;51.356;12.458;2023-03-21T12:58:07;8.85;;;3.60;;
65033;SDS011;51601;51.356;12.458;2023-03-21T13:02:39;6.97;;;3.30;;
65033;SDS011;51601;51.356;12.458;2023-03-21T13:07:08;7.85;;;3.08;;
65033;SDS011;51601;51.356;12.458;2023-03-21T13:11:34;8.57;;;3.40;;
65033;SDS011;51601;51.356;12.458;2023-03-21T13:16:01;8.75;;;3.22;;
65033;SDS011;51601;51.356;12.458;2023-03-21T13:20:33;7.32;;;2.90;;
65033;SDS011;51601;51.356;12.458;2023-03-21T13:25:17;7.30;;;3.30;;
65033;SDS011;51601;51.356;12.458;2023-03-21T13:29:44;9.35;;;3.80;;
65033;SDS011;51601;51.356;12.458;2023-03-21T13:34:10;8.50;;;3.25;;
65033;SDS011;51601;51.356;12.458;2023-03-21T13:38:36;5.97;;;2.90;;
65033;SDS011;51601;51.356;12.458;2023-03-21T13:43:03;7.90;;;3.33;;
65033;SDS011;51601;51.356;12.458;2023-03-21T13:47:37;6.65;;;3.00;;
65033;SDS011;51601;51.356;12.458;2023-03-21T13:56:52;7.90;;;2.90;;
65033;SDS011;51601;51.356;12.458;2023-03-21T14:01:27;6.75;;;3.00;;
65033;SDS011;51601;51.356;12.458;2023-03-21T14:05:55;6.57;;;2.65;;
65033;SDS011;51601;51.356;12.458;2023-03-21T14:10:21;15.43;;;4.30;;
65033;SDS011;51601;51.356;12.458;2023-03-21T14:14:48;34.95;;;4.68;;
65033;SDS011;51601;51.356;12.458;2023-03-21T14:19:16;26.63;;;4.22;;
65033;SDS011;51601;51.356;12.458;2023-03-21T14:23:40;8.40;;;2.83;;
65033;SDS011;51601;51.356;12.458;2023-03-21T14:28:05;15.02;;;3.42;;
65033;SDS011;51601;51.356;12.458;2023-03-21T14:32:35;27.75;;;4.72;;
65033;SDS011;51601;51.356;12.458;2023-03-21T14:37:02;14.25;;;3.35;;
65033;SDS011;51601;51.356;12.458;2023-03-21T14:41:30;24.60;;;4.43;;
65033;SDS011;51601;51.356;12.458;2023-03-21T14:45:55;6.72;;;3.00;;
65033;SDS011;51601;51.356;12.458;2023-03-21T14:50:21;7.70;;;3.20;;
65033;SDS011;51601;51.356;12.458;2023-03-21T14:54:51;73.10;;;8.33;;
65033;SDS011;51601;51.356;12.458;2023-03-21T14:59:18;60.83;;;6.72;;
65033;SDS011;51601;51.356;12.458;2023-03-21T15:03:45;10.68;;;4.03;;
65033;SDS011;51601;51.356;12.458;2023-03-21T15:08:14;7.50;;;3.03;;
65033;SDS011;51601;51.356;12.458;2023-03-21T15:12:51;7.90;;;2.65;;
65033;SDS011;51601;51.356;12.458;2023-03-21T15:17:16;6.82;;;2.90;;
65033;SDS011;51601;51.356;12.458;2023-03-21T15:21:43;7.85;;;3.20;;
65033;SDS011;51601;51.356;12.458;2023-03-21T15:26:12;7.63;;;3.00;;
65033;SDS011;51601;51.356;12.458;2023-03-21T15:30:39;7.55;;;3.00;;
65033;SDS011;51601;51.356;12.458;2023-03-21T15:35:12;7.93;;;3.03;;
65033;SDS011;51601;51.356;12.458;2023-03-21T15:39:41;7.57;;;2.90;;
65033;SDS011;51601;51.356;12.458;2023-03-21T15:44:10;6.82;;;2.83;;
65033;SDS011;51601;51.356;12.458;2023-03-21T15:48:38;7.80;;;2.90;;
65033;SDS011;51601;51.356;12.458;2023-03-21T15:53:03;5.80;;;2.60;;
65033;SDS011;51601;51.356;12.458;2023-03-21T15:57:29;6.35;;;2.85;;
65033;SDS011;51601;51.356;12.458;2023-03-21T16:01:55;7.95;;;2.85;;
65033;SDS011;51601;51.356;12.458;2023-03-21T16:06:22;7.70;;;3.20;;
65033;SDS011;51601;51.356;12.458;2023-03-21T16:10:51;6.77;;;2.83;;
65033;SDS011;51601;51.356;12.458;2023-03-21T16:15:15;6.32;;;2.80;;
65033;SDS011;51601;51.356;12.458;2023-03-21T16:19:39;9.10;;;2.90;;
65033;SDS011;51601;51.356;12.458;2023-03-21T16:24:06;9.47;;;2.53;;
65033;SDS011;51601;51.356;12.458;2023-03-21T16:28:32;6.53;;;2.75;;
65033;SDS011;51601;51.356;12.458;2023-03-21T16:32:56;7.10;;;2.65;;
65033;SDS011;51601;51.356;12.458;2023-03-21T16:37:20;8.70;;;2.83;;
65033;SDS011;51601;51.356;12.458;2023-03-21T16:41:46;8.27;;;3.15;;
65033;SDS011;51601;51.356;12.458;2023-03-21T16:46:12;9.25;;;2.75;;
65033;SDS011;51601;51.356;12.458;2023-03-21T16:50:39;7.75;;;2.92;;
65033;SDS011;51601;51.356;12.458;2023-03-21T16:55:04;7.47;;;3.20;;
65033;SDS011;51601;51.356;12.458;2023-03-21T16:59:31;7.38;;;2.58;;
65033;SDS011;51601;51.356;12.458;2023-03-21T17:03:55;8.48;;;3.08;;
65033;SDS011;51601;51.356;12.458;2023-03-21T17:08:19;6.53;;;2.83;;
65033;SDS011;51601;51.356;12.458;2023-03-21T17:12:43;8.65;;;2.80;;
65033;SDS011;51601;51.356;12.458;2023-03-21T17:17:12;7.90;;;3.00;;
65033;SDS011;51601;51.356;12.458;2023-03-21T17:21:37;9.10;;;3.40;;
65033;SDS011;51601;51.356;12.458;2023-03-21T17:26:01;9.02;;;3.85;;
65033;SDS011;51601;51.356;12.458;2023-03-21T17:30:26;7.38;;;2.95;;
65033;SDS011;51601;51.356;12.458;2023-03-21T17:34:52;8.30;;;3.20;;
65033;SDS011;51601;51.356;12.458;2023-03-21T17:39:17;8.27;;;3.20;;
65033;SDS011;51601;51.356;12.458;2023-03-21T17:43:43;7.35;;;3.00;;
65033;SDS011;51601;51.356;12.458;2023-03-21T17:48:07;7.72;;;2.58;;
65033;SDS011;51601;51.356;12.458;2023-03-21T17:52:33;8.17;;;3.57;;
65033;SDS011;51601;51.356;12.458;2023-03-21T17:56:59;9.32;;;3.72;;
65033;SDS011;51601;51.356;12.458;2023-03-21T18:01:23;9.20;;;4.32;;
65033;SDS011;51601;51.356;12.458;2023-03-21T18:05:47;10.20;;;4.67;;
65033;SDS011;51601;51.356;12.458;2023-03-21T18:10:13;9.75;;;4.85;;
65033;SDS011;51601;51.356;12.458;2023-03-21T18:14:38;10.88;;;5.22;;
65033;SDS011;51601;51.356;12.458;2023-03-21T18:19:03;13.50;;;5.60;;
65033;SDS011;51601;51.356;12.458;2023-03-21T18:23:27;12.60;;;5.87;;
65033;SDS011;51601;51.356;12.458;2023-03-21T18:27:54;15.73;;;5.60;;
65033;SDS011;51601;51.356;12.458;2023-03-21T18:32:33;12.63;;;5.35;;
65033;SDS011;51601;51.356;12.458;2023-03-21T18:36:56;12.57;;;6.10;;
65033;SDS011;51601;51.356;12.458;2023-03-21T18:41:24;13.27;;;5.55;;
65033;SDS011;51601;51.356;12.458;2023-03-21T18:45:50;12.13;;;5.40;;
65033;SDS011;51601;51.356;12.458;2023-03-21T18:50:14;13.87;;;6.00;;
65033;SDS011;51601;51.356;12.458;2023-03-21T18:54:38;10.90;;;6.05;;
65033;SDS011;51601;51.356;12.458;2023-03-21T18:59:04;12.15;;;6.63;;
65033;SDS011;51601;51.356;12.458;2023-03-21T19:03:29;13.65;;;7.00;;
65033;SDS011;51601;51.356;12.458;2023-03-21T19:07:58;13.23;;;6.40;;
65033;SDS011;51601;51.356;12.458;2023-03-21T19:12:22;14.10;;;6.45;;
65033;SDS011;51601;51.356;12.458;2023-03-21T19:16:46;14.48;;;6.97;;
65033;SDS011;51601;51.356;12.458;2023-03-21T19:21:31;13.67;;;6.97;;
65033;SDS011;51601;51.356;12.458;2023-03-21T19:25:55;13.73;;;7.10;;
65033;SDS011;51601;51.356;12.458;2023-03-21T19:30:19;15.02;;;7.82;;
65033;SDS011;51601;51.356;12.458;2023-03-21T19:34:42;15.23;;;7.47;;
65033;SDS011;51601;51.356;12.458;2023-03-21T19:39:09;16.67;;;8.02;;
65033;SDS011;51601;51.356;12.458;2023-03-21T19:43:34;17.25;;;8.50;;
65033;SDS011;51601;51.356;12.458;2023-03-21T19:48:01;16.88;;;8.02;;
65033;SDS011;51601;51.356;12.458;2023-03-21T19:52:25;17.27;;;8.27;;
65033;SDS011;51601;51.356;12.458;2023-03-21T19:56:50;16.65;;;7.65;;
65033;SDS011;51601;51.356;12.458;2023-03-21T20:01:14;17.35;;;7.93;;
65033;SDS011;51601;51.356;12.458;2023-03-21T20:05:38;15.20;;;8.30;;
65033;SDS011;51601;51.356;12.458;2023-03-21T20:10:02;14.63;;;7.63;;
65033;SDS011;51601;51.356;12.458;2023-03-21T20:14:28;21.55;;;9.20;;
65033;SDS011;51601;51.356;12.458;2023-03-21T20:18:52;17.60;;;8.97;;
65033;SDS011;51601;51.356;12.458;2023-03-21T20:23:16;18.58;;;9.15;;
65033;SDS011;51601;51.356;12.458;2023-03-21T20:27:42;17.25;;;9.25;;
65033;SDS011;51601;51.356;12.458;2023-03-21T20:32:07;17.42;;;9.38;;
65033;SDS011;51601;51.356;12.458;2023-03-21T20:36:31;19.00;;;10.17;;
65033;SDS011;51601;51.356;12.458;2023-03-21T20:41:03;21.38;;;10.13;;
65033;SDS011;51601;51.356;12.458;2023-03-21T20:45:28;22.50;;;11.00;;
65033;SDS011;51601;51.356;12.458;2023-03-21T20:49:53;22.97;;;10.97;;
65033;SDS011;51601;51.356;12.458;2023-03-21T20:54:18;21.75;;;11.45;;
65033;SDS011;51601;51.356;12.458;2023-03-21T20:58:42;21.92;;;11.65;;
65033;SDS011;51601;51.356;12.458;2023-03-21T21:03:26;20.03;;;11.53;;
65033;SDS011;51601;51.356;12.458;2023-03-21T21:07:51;21.42;;;10.77;;
65033;SDS011;51601;51.356;12.458;2023-03-21T21:12:15;23.70;;;11.93;;
65033;SDS011;51601;51.356;12.458;2023-03-21T21:16:40;22.17;;;11.23;;
65033;SDS011;51601;51.356;12.458;2023-03-21T21:21:06;21.90;;;11.27;;
65033;SDS011;51601;51.356;12.458;2023-03-21T21:25:32;23.75;;;11.60;;
65033;SDS011;51601;51.356;12.458;2023-03-21T21:29:56;19.60;;;10.93;;
65033;SDS011;51601;51.356;12.458;2023-03-21T21:34:20;19.57;;;10.93;;
65033;SDS011;51601;51.356;12.458;2023-03-21T21:38:44;21.40;;;11.07;;
65033;SDS011;51601;51.356;12.458;2023-03-21T21:43:11;21.35;;;11.60;;
65033;SDS011;51601;51.356;12.458;2023-03-21T21:47:38;18.63;;;11.17;;
65033;SDS011;51601;51.356;12.458;2023-03-21T21:52:02;19.05;;;10.35;;
65033;SDS011;51601;51.356;12.458;2023-03-21T21:56:26;20.92;;;10.02;;
65033;SDS011;51601;51.356;12.458;2023-03-21T22:00:56;21.83;;;11.15;;
65033;SDS011;51601;51.356;12.458;2023-03-21T22:05:20;21.93;;;11.40;;
65033;SDS011;51601;51.356;12.458;2023-03-21T22:09:45;20.25;;;11.32;;
65033;SDS011;51601;51.356;12.458;2023-03-21T22:14:09;21.08;;;10.35;;
65033;SDS011;51601;51.356;12.458;2023-03-21T22:18:34;19.60;;;11.13;;
65033;SDS011;51601;51.356;12.458;2023-03-21T22:22:59;22.52;;;11.35;;
65033;SDS011;51601;51.356;12.458;2023-03-21T22:27:23;21.42;;;11.20;;
65033;SDS011;51601;51.356;12.458;2023-03-21T22:31:47;20.07;;;10.27;;
65033;SDS011;51601;51.356;12.458;2023-03-21T22:36:12;23.25;;;11.95;;
65033;SDS011;51601;51.356;12.458;2023-03-21T22:40:36;22.88;;;12.70;;
65033;SDS011;51601;51.356;12.458;2023-03-21T22:45:00;20.85;;;12.13;;
65033;SDS011;51601;51.356;12.458;2023-03-21T22:49:26;23.20;;;11.97;;
65033;SDS011;51601;51.356;12.458;2023-03-21T22:53:51;18.55;;;9.93;;
65033;SDS011;51601;51.356;12.458;2023-03-21T22:58:16;21.23;;;11.43;;
65033;SDS011;51601;51.356;12.458;2023-03-21T23:02:40;20.47;;;11.60;;
65033;SDS011;51601;51.356;12.458;2023-03-21T23:07:04;20.38;;;11.18;;
65033;SDS011;51601;51.356;12.458;2023-03-21T23:11:30;23.33;;;11.25;;
65033;SDS011;51601;51.356;12.458;2023-03-21T23:15:53;22.20;;;10.87;;
65033;SDS011;51601;51.356;12.458;2023-03-21T23:20:18;20.05;;;10.60;;
65033;SDS011;51601;51.356;12.458;2023-03-21T23:24:43;19.60;;;11.15;;
65033;SDS011;51601;51.356;12.458;2023-03-21T23:29:09;21.63;;;10.85;;
65033;SDS011;51601;51.356;12.458;2023-03-21T23:33:33;18.87;;;10.03;;
65033;SDS011;51601;51.356;12.458;2023-03-21T23:37:57;16.98;;;9.48;;
65033;SDS011;51601;51.356;12.458;2023-03-21T23:42:21;21.25;;;9.30;;
65033;SDS011;51601;51.356;12.458;2023-03-21T23:46:47;21.00;;;10.27;;
65033;SDS011;51601;51.356;12.458;2023-03-21T23:51:12;19.80;;;10.38;;
65033;SDS011;51601;51.356;12.458;2023-03-21T23:55:37;18.63;;;10.63;;
